Terminal Aerodrome Forecast
Issued by NWS

Home | Current Version | Previous Version | Text Only | Print | Product List | Glossary Off
Versions: 1 2 3 4 5 6 7 8 9 10 11 12 13 14 15 16 17 18 19 20 21 22 23 24 25

000
FTUS43 KLOT 181504 AAA
TAFDPA
TAF AMD
KDPA 181504Z 1815/1912 10014G21KT P6SM OVC025
     FM181615 07014G21KT 4SM -SHRA OVC020
     FM181900 03012G20KT 1 1/2SM -DZRA BR OVC006
     FM182300 35013G21KT 1 1/2SM -DZRA BR OVC006
     FM190100 34014G21KT 1SM -SN BR OVC007
     FM190700 34011KT P6SM BKN015
     FM191000 35010KT P6SM SCT100=

USA.gov is the U.S. government's official web portal to all federal, state and local government web resources and services.